Time;durP1;ratioP1;P1;durP2;ratioP2;P2;SDS_P1;SDS_P2;PMS_P1;PMS_P2;Temp;Humidity;BMP_temperature;BMP_pressure;BME280_temperature;BME280_humidity;BME280_pressure;Samples;Min_cycle;Max_cycle;Signal;HPM_P1;HPM_P2
2024/03/20 00:02:15;;;;;;;;;;;22.00;33.60;;;;;;5072235;28;20377;-64
2024/03/20 00:04:41;;;;;;;;;;;21.90;33.60;;;;;;5072213;28;19928;-63
2024/03/20 00:07:07;;;;;;;;;;;21.90;33.60;;;;;;5072540;28;19924;-63
2024/03/20 00:09:33;;;;;;;;;;;21.90;33.60;;;;;;5072447;28;20427;-63
2024/03/20 00:11:59;;;;;;;;;;;21.90;33.60;;;;;;5072072;28;19978;-63
2024/03/20 00:14:25;;;;;;;;;;;21.90;33.60;;;;;;5072440;28;19928;-64
2024/03/20 00:16:51;;;;;;;;;;;21.90;33.80;;;;;;5072327;28;19928;-63
2024/03/20 00:19:17;;;;;;;;;;;21.90;33.80;;;;;;5072199;28;20327;-64
2024/03/20 00:21:43;;;;;;;;;;;21.90;33.70;;;;;;5072034;28;19954;-63
2024/03/20 00:24:09;;;;;;;;;;;21.80;33.70;;;;;;5072259;28;19993;-63
2024/03/20 00:26:35;;;;;;;;;;;21.90;33.80;;;;;;5071836;28;20361;-63
2024/03/20 00:29:01;;;;;;;;;;;21.80;33.70;;;;;;5072254;28;19948;-63
2024/03/20 00:31:26;;;;;;;;;;;21.80;33.70;;;;;;5072065;28;19925;-64
2024/03/20 00:33:52;;;;;;;;;;;21.80;33.80;;;;;;5072216;28;19928;-63
2024/03/20 00:36:18;;;;;;;;;;;21.80;33.80;;;;;;5071962;28;19924;-63
2024/03/20 00:38:44;;;;;;;;;;;21.80;33.80;;;;;;5071750;28;19925;-63
2024/03/20 00:41:10;;;;;;;;;;;21.80;33.80;;;;;;5072334;28;19949;-63
2024/03/20 00:43:36;;;;;;;;;;;21.80;33.80;;;;;;5072264;28;19928;-63
2024/03/20 00:46:03;;;;;;;;;;;21.80;33.70;;;;;;5071813;28;19936;-63
2024/03/20 00:48:28;;;;;;;;;;;21.90;33.60;;;;;;5071899;28;19931;-64
2024/03/20 00:50:54;;;;;;;;;;;21.90;33.60;;;;;;5075620;28;19936;-63
2024/03/20 00:53:20;;;;;;;;;;;21.90;33.50;;;;;;5075570;28;19924;-63
2024/03/20 00:55:46;;;;;;;;;;;21.90;33.50;;;;;;5075918;28;19925;-63
2024/03/20 00:58:12;;;;;;;;;;;21.90;33.60;;;;;;5075520;28;20341;-63
2024/03/20 01:00:38;;;;;;;;;;;21.90;33.60;;;;;;5075595;28;19924;-64
2024/03/20 01:03:04;;;;;;;;;;;21.80;33.50;;;;;;5076047;28;19973;-63
2024/03/20 01:05:30;;;;;;;;;;;21.80;33.50;;;;;;5058784;28;19924;-63
2024/03/20 01:07:56;;;;;;;;;;;21.80;33.50;;;;;;5075701;28;19931;-63
2024/03/20 01:10:22;;;;;;;;;;;21.80;33.60;;;;;;5075384;28;19929;-64
2024/03/20 01:12:48;;;;;;;;;;;21.80;33.60;;;;;;5075473;28;19928;-63
2024/03/20 01:15:14;;;;;;;;;;;21.80;33.70;;;;;;5075340;28;19931;-63
2024/03/20 01:17:40;;;;;;;;;;;21.80;33.70;;;;;;5075605;28;19924;-63
2024/03/20 01:20:07;;;;;;;;;;;21.70;33.60;;;;;;5075405;28;19932;-63
2024/03/20 01:22:34;;;;;;;;;;;21.70;33.70;;;;;;5075512;28;19925;-64
2024/03/20 01:25:00;;;;;;;;;;;21.70;33.70;;;;;;5058732;28;19985;-63
2024/03/20 01:27:25;;;;;;;;;;;21.70;33.70;;;;;;5075296;28;20365;-63
2024/03/20 01:29:51;;;;;;;;;;;21.70;33.60;;;;;;5075421;28;19925;-63
2024/03/20 01:32:17;;;;;;;;;;;21.70;33.70;;;;;;5074992;28;19924;-63
2024/03/20 01:34:43;;;;;;;;;;;21.70;33.70;;;;;;5074944;28;19924;-64
2024/03/20 01:37:09;;;;;;;;;;;21.70;33.70;;;;;;5075008;28;19924;-63
2024/03/20 01:39:35;;;;;;;;;;;21.70;33.70;;;;;;5075062;28;19925;-63
2024/03/20 01:42:01;;;;;;;;;;;21.70;33.70;;;;;;5075343;28;20345;-63
2024/03/20 01:44:27;;;;;;;;;;;21.70;33.70;;;;;;5074993;28;20303;-63
2024/03/20 01:46:53;;;;;;;;;;;21.70;33.70;;;;;;5075039;28;20384;-63
2024/03/20 01:49:19;;;;;;;;;;;21.70;33.70;;;;;;5074724;28;19924;-63
2024/03/20 01:51:45;;;;;;;;;;;21.70;33.60;;;;;;5074630;28;19978;-64
2024/03/20 01:54:11;;;;;;;;;;;21.70;33.60;;;;;;5074839;28;20015;-63
2024/03/20 01:56:37;;;;;;;;;;;21.80;33.50;;;;;;5074271;28;19928;-64
2024/03/20 01:59:03;;;;;;;;;;;21.70;33.40;;;;;;5074870;28;20011;-63
2024/03/20 02:01:29;;;;;;;;;;;21.70;33.40;;;;;;5074200;28;20254;-63
2024/03/20 02:03:57;;;;;;;;;;;21.70;33.40;;;;;;5074515;28;19931;-63
2024/03/20 02:06:24;;;;;;;;;;;21.70;33.40;;;;;;5074644;28;19970;-63
2024/03/20 02:08:50;;;;;;;;;;;21.70;33.50;;;;;;5074778;28;19928;-63
2024/03/20 02:11:16;;;;;;;;;;;21.70;33.40;;;;;;5074163;28;19978;-63
2024/03/20 02:13:44;;;;;;;;;;;21.70;33.40;;;;;;5074333;28;19936;-64
2024/03/20 02:16:10;;;;;;;;;;;21.70;33.40;;;;;;5074296;28;20328;-63
2024/03/20 02:18:35;;;;;;;;;;;21.70;33.40;;;;;;5074010;28;19982;-66
2024/03/20 02:21:09;;;;;;;;;;;21.70;33.40;;;;;;5074376;28;19928;-63
2024/03/20 02:23:35;;;;;;;;;;;21.70;33.40;;;;;;5074122;28;19924;-63
2024/03/20 02:26:01;;;;;;;;;;;21.70;33.50;;;;;;5073918;28;20147;-63
2024/03/20 02:28:27;;;;;;;;;;;21.60;33.40;;;;;;5073896;28;19925;-63
2024/03/20 02:30:53;;;;;;;;;;;21.60;33.50;;;;;;5073637;28;19967;-64
2024/03/20 02:33:19;;;;;;;;;;;21.60;33.50;;;;;;5073924;28;19925;-63
2024/03/20 02:35:45;;;;;;;;;;;21.60;33.50;;;;;;5074167;28;19928;-63
2024/03/20 02:38:10;;;;;;;;;;;21.60;33.50;;;;;;5074105;28;19954;-63
2024/03/20 02:40:36;;;;;;;;;;;21.60;33.50;;;;;;5073570;28;20397;-63
2024/03/20 02:43:02;;;;;;;;;;;21.60;33.50;;;;;;5073860;28;19924;-63
2024/03/20 02:45:28;;;;;;;;;;;21.60;33.50;;;;;;5073779;28;19924;-63
2024/03/20 02:47:54;;;;;;;;;;;21.60;33.50;;;;;;5074020;28;19947;-63
2024/03/20 02:50:20;;;;;;;;;;;21.60;33.60;;;;;;5073452;28;20381;-63
2024/03/20 02:52:45;;;;;;;;;;;21.60;33.60;;;;;;5073419;28;19924;-64
2024/03/20 02:55:11;;;;;;;;;;;21.60;33.50;;;;;;5073511;28;19950;-63
2024/03/20 02:57:37;;;;;;;;;;;21.60;33.50;;;;;;5073804;28;20061;-63
2024/03/20 03:00:03;;;;;;;;;;;21.60;33.50;;;;;;5073215;28;19966;-63
2024/03/20 03:02:29;;;;;;;;;;;21.60;33.50;;;;;;5073347;28;19925;-63
2024/03/20 03:04:55;;;;;;;;;;;21.60;33.40;;;;;;5073546;28;19924;-64
2024/03/20 03:07:23;;;;;;;;;;;21.60;33.40;;;;;;5073197;28;20308;-63
2024/03/20 03:09:48;;;;;;;;;;;21.60;33.30;;;;;;5073038;28;19947;-64
2024/03/20 03:12:14;;;;;;;;;;;21.60;33.30;;;;;;5055669;28;20428;-63
2024/03/20 03:14:41;;;;;;;;;;;21.60;33.30;;;;;;5072846;28;19925;-63
2024/03/20 03:17:07;;;;;;;;;;;21.60;33.30;;;;;;5073222;28;19943;-63
2024/03/20 03:19:32;;;;;;;;;;;21.60;33.30;;;;;;5072844;28;19924;-63
2024/03/20 03:21:58;;;;;;;;;;;21.60;33.30;;;;;;5073032;28;19978;-63
2024/03/20 03:24:24;;;;;;;;;;;21.60;33.30;;;;;;5072921;28;19925;-63
2024/03/20 03:26:50;;;;;;;;;;;21.60;33.30;;;;;;5072448;28;19935;-64
2024/03/20 03:29:16;;;;;;;;;;;21.50;33.30;;;;;;5056353;28;19924;-64
2024/03/20 03:31:42;;;;;;;;;;;21.60;33.30;;;;;;5073197;28;19978;-64
2024/03/20 03:34:08;;;;;;;;;;;21.50;33.30;;;;;;5072853;28;20394;-64
2024/03/20 03:36:34;;;;;;;;;;;21.50;33.30;;;;;;5055948;28;19924;-63
2024/03/20 03:39:00;;;;;;;;;;;21.50;33.90;;;;;;5072980;28;19925;-64
2024/03/20 03:41:26;;;;;;;;;;;21.50;33.60;;;;;;5072887;28;20410;-63
2024/03/20 03:43:52;;;;;;;;;;;21.50;33.40;;;;;;5072932;28;20404;-64
2024/03/20 03:46:18;;;;;;;;;;;21.50;33.40;;;;;;5072640;28;19947;-63
2024/03/20 03:48:44;;;;;;;;;;;21.50;33.40;;;;;;5072595;28;20371;-63
2024/03/20 03:51:10;;;;;;;;;;;21.50;33.40;;;;;;5072548;28;19932;-63
2024/03/20 03:53:36;;;;;;;;;;;21.40;33.30;;;;;;5072790;28;19924;-63
2024/03/20 03:56:02;;;;;;;;;;;21.50;33.30;;;;;;5072733;28;20297;-63
2024/03/20 03:58:28;;;;;;;;;;;21.50;33.40;;;;;;5072680;28;20370;-64
2024/03/20 04:00:54;;;;;;;;;;;21.40;33.30;;;;;;5072166;28;19924;-68
2024/03/20 04:03:27;;;;;;;;;;;21.50;33.40;;;;;;5072626;28;19925;-68
2024/03/20 04:05:57;;;;;;;;;;;21.50;33.40;;;;;;5072170;28;19998;-69
2024/03/20 04:08:22;;;;;;;;;;;21.50;33.40;;;;;;5071959;28;20381;-64
2024/03/20 04:10:48;;;;;;;;;;;21.50;33.30;;;;;;5072075;28;19928;-65
2024/03/20 04:13:14;;;;;;;;;;;21.50;33.20;;;;;;5072255;28;19924;-65
2024/03/20 04:15:42;;;;;;;;;;;21.50;33.20;;;;;;5072524;28;19924;-66
2024/03/20 04:18:08;;;;;;;;;;;21.50;33.10;;;;;;5072381;28;19924;-65
2024/03/20 04:20:34;;;;;;;;;;;21.50;33.20;;;;;;5071720;28;19971;-65
2024/03/20 04:23:01;;;;;;;;;;;21.50;33.20;;;;;;5072287;28;19931;-64
2024/03/20 04:25:28;;;;;;;;;;;21.50;33.20;;;;;;5071678;28;19925;-63
2024/03/20 04:27:55;;;;;;;;;;;21.50;33.20;;;;;;5072373;28;20392;-64
2024/03/20 04:30:22;;;;;;;;;;;21.50;33.20;;;;;;5071863;28;19929;-63
2024/03/20 04:32:48;;;;;;;;;;;21.50;33.20;;;;;;5071922;28;19928;-63
2024/03/20 04:35:14;;;;;;;;;;;21.40;33.20;;;;;;5072093;28;19931;-64
2024/03/20 04:37:40;;;;;;;;;;;21.50;33.20;;;;;;5071705;28;20286;-63
2024/03/20 04:40:07;;;;;;;;;;;21.40;32.80;;;;;;5071742;28;19925;-64
2024/03/20 04:42:33;;;;;;;;;;;21.50;32.60;;;;;;5072129;28;19924;-63
2024/03/20 04:45:00;;;;;;;;;;;21.50;32.30;;;;;;5072070;28;19931;-66
2024/03/20 04:47:25;;;;;;;;;;;21.60;32.10;;;;;;5072165;28;19924;-63
2024/03/20 04:49:51;;;;;;;;;;;21.60;32.00;;;;;;5071738;28;20343;-63
2024/03/20 04:52:17;;;;;;;;;;;21.60;31.80;;;;;;5071864;28;20007;-64
2024/03/20 04:54:43;;;;;;;;;;;21.60;31.70;;;;;;5071472;28;20015;-64
2024/03/20 04:57:09;;;;;;;;;;;21.60;31.70;;;;;;5071634;28;19925;-64
2024/03/20 04:59:35;;;;;;;;;;;21.60;31.60;;;;;;5071950;28;20017;-64
2024/03/20 05:02:02;;;;;;;;;;;21.60;31.50;;;;;;5071681;28;20465;-63
2024/03/20 05:04:28;;;;;;;;;;;21.60;31.40;;;;;;5071953;28;19928;-64
2024/03/20 05:06:53;;;;;;;;;;;21.70;31.50;;;;;;5071663;28;19924;-63
2024/03/20 05:09:19;;;;;;;;;;;21.60;31.40;;;;;;5066096;28;20396;-64
2024/03/20 05:11:45;;;;;;;;;;;21.70;31.40;;;;;;5064379;28;19928;-63
2024/03/20 05:14:11;;;;;;;;;;;21.60;31.20;;;;;;5059803;28;20386;-64
2024/03/20 05:16:37;;;;;;;;;;;21.70;31.80;;;;;;5061581;28;20018;-64
2024/03/20 05:19:04;;;;;;;;;;;21.70;31.20;;;;;;5060984;28;20286;-63
2024/03/20 05:21:30;;;;;;;;;;;21.70;31.20;;;;;;5056908;28;20042;-64
2024/03/20 05:23:56;;;;;;;;;;;21.70;31.10;;;;;;5051188;28;19937;-64
2024/03/20 05:26:21;;;;;;;;;;;21.70;31.10;;;;;;5034734;28;19929;-64
2024/03/20 05:28:47;;;;;;;;;;;21.80;31.10;;;;;;5050946;28;19936;-63
2024/03/20 05:31:27;;;;;;;;;;;21.80;31.10;;;;;;5051537;28;19972;-64
2024/03/20 05:33:53;;;;;;;;;;;21.80;31.10;;;;;;5051152;28;19924;-64
2024/03/20 05:36:19;;;;;;;;;;;21.80;31.10;;;;;;5052981;28;19931;-63
2024/03/20 05:38:44;;;;;;;;;;;21.80;31.10;;;;;;5054808;28;20266;-63
2024/03/20 05:41:10;;;;;;;;;;;21.80;31.00;;;;;;5054858;28;19925;-65
2024/03/20 05:43:36;;;;;;;;;;;21.80;31.00;;;;;;5055129;28;19931;-63
2024/03/20 05:46:03;;;;;;;;;;;21.90;31.00;;;;;;5054618;28;19932;-63
2024/03/20 05:48:29;;;;;;;;;;;21.80;30.90;;;;;;5057586;28;20101;-64
2024/03/20 05:50:56;;;;;;;;;;;21.90;30.90;;;;;;5074539;28;19993;-63
2024/03/20 05:53:22;;;;;;;;;;;21.90;30.90;;;;;;5073192;28;19935;-64
2024/03/20 05:55:50;;;;;;;;;;;21.90;30.80;;;;;;5074550;28;20289;-63
2024/03/20 05:58:16;;;;;;;;;;;21.90;30.80;;;;;;5073883;28;19931;-64
2024/03/20 06:00:42;;;;;;;;;;;21.90;30.80;;;;;;5074450;28;19928;-63
2024/03/20 06:03:08;;;;;;;;;;;22.00;30.80;;;;;;5074325;28;19979;-63
2024/03/20 06:05:34;;;;;;;;;;;22.00;30.70;;;;;;5074365;28;19931;-63
2024/03/20 06:08:00;;;;;;;;;;;22.00;30.70;;;;;;5073992;28;19925;-64
2024/03/20 06:10:26;;;;;;;;;;;22.00;30.60;;;;;;5074278;28;19932;-64
2024/03/20 06:12:52;;;;;;;;;;;22.00;30.50;;;;;;5074137;28;19928;-63
2024/03/20 06:15:18;;;;;;;;;;;22.00;30.50;;;;;;5073545;28;19986;-64
2024/03/20 06:17:43;;;;;;;;;;;22.00;30.40;;;;;;5073070;28;19936;-63
2024/03/20 06:20:10;;;;;;;;;;;22.00;30.40;;;;;;5067943;28;19932;-70
2024/03/20 06:22:36;;;;;;;;;;;22.00;30.40;;;;;;5056955;28;19932;-66
2024/03/20 06:25:08;;;;;;;;;;;22.10;30.60;;;;;;5066642;28;20396;-70
2024/03/20 06:27:35;;;;;;;;;;;22.10;31.10;;;;;;5068433;28;19954;-67
2024/03/20 06:30:03;;;;;;;;;;;22.10;31.20;;;;;;5062613;28;20004;-68
2024/03/20 06:32:32;;;;;;;;;;;22.10;31.20;;;;;;5059299;28;19935;-67
2024/03/20 06:34:58;;;;;;;;;;;22.20;31.20;;;;;;5060866;28;19928;-65
2024/03/20 06:37:24;;;;;;;;;;;22.20;31.20;;;;;;5064593;28;20281;-64
2024/03/20 06:39:50;;;;;;;;;;;22.30;31.40;;;;;;5062997;28;19925;-64
2024/03/20 06:42:20;;;;;;;;;;;22.20;31.80;;;;;;5058799;28;20461;-64
2024/03/20 06:44:47;;;;;;;;;;;22.30;31.20;;;;;;5059477;28;19928;-63
2024/03/20 06:47:13;;;;;;;;;;;22.30;31.10;;;;;;5062649;28;19931;-65
2024/03/20 06:49:39;;;;;;;;;;;22.30;31.10;;;;;;5062303;28;19974;-66
2024/03/20 06:52:05;;;;;;;;;;;22.30;31.30;;;;;;5042770;28;19925;-68
2024/03/20 06:54:31;;;;;;;;;;;22.40;31.60;;;;;;5059514;28;19978;-70
2024/03/20 06:57:03;;;;;;;;;;;22.40;31.70;;;;;;5064699;28;20023;-68
2024/03/20 06:59:30;;;;;;;;;;;22.50;31.80;;;;;;5061527;28;19936;-66
2024/03/20 07:01:57;;;;;;;;;;;22.50;31.80;;;;;;5059198;28;19994;-66
2024/03/20 07:04:23;;;;;;;;;;;22.50;31.80;;;;;;5063328;28;20282;-66
2024/03/20 07:06:49;;;;;;;;;;;22.50;31.60;;;;;;5057739;28;19929;-65
2024/03/20 07:09:15;;;;;;;;;;;22.60;31.60;;;;;;5056827;28;19943;-63
2024/03/20 07:11:41;;;;;;;;;;;22.60;31.70;;;;;;5059126;28;19932;-65
2024/03/20 07:14:07;;;;;;;;;;;22.70;31.50;;;;;;5056821;28;19932;-66
2024/03/20 07:16:32;;;;;;;;;;;22.80;31.30;;;;;;5030682;28;19986;-64
2024/03/20 07:18:58;;;;;;;;;;;22.80;31.20;;;;;;5042943;28;20015;-67
2024/03/20 07:21:25;;;;;;;;;;;22.90;31.20;;;;;;5061359;28;20278;-67
2024/03/20 07:23:53;;;;;;;;;;;22.90;31.30;;;;;;5058276;28;19928;-66
2024/03/20 07:26:19;;;;;;;;;;;22.90;31.50;;;;;;5058204;28;19932;-63
2024/03/20 07:28:45;;;;;;;;;;;22.90;31.40;;;;;;5060493;28;19925;-64
2024/03/20 07:31:11;;;;;;;;;;;23.00;31.40;;;;;;5057294;28;19936;-67
2024/03/20 07:33:37;;;;;;;;;;;23.00;31.40;;;;;;5057301;28;19974;-69
2024/03/20 07:36:03;;;;;;;;;;;23.00;31.40;;;;;;5062105;28;19925;-64
2024/03/20 07:38:30;;;;;;;;;;;23.00;31.40;;;;;;5057415;28;19933;-63
2024/03/20 07:40:56;;;;;;;;;;;23.10;31.30;;;;;;5059486;28;19929;-63
2024/03/20 07:43:22;;;;;;;;;;;23.20;31.40;;;;;;5059514;28;19995;-63
2024/03/20 07:45:48;;;;;;;;;;;23.20;31.30;;;;;;5061835;28;19935;-65
2024/03/20 07:48:15;;;;;;;;;;;23.20;31.20;;;;;;5055902;28;19925;-66
2024/03/20 07:50:41;;;;;;;;;;;23.30;31.30;;;;;;5055700;28;19924;-64
2024/03/20 07:53:06;;;;;;;;;;;23.30;31.20;;;;;;5039763;28;19932;-66
2024/03/20 07:55:32;;;;;;;;;;;23.30;31.10;;;;;;5059242;28;19939;-65
2024/03/20 07:57:58;;;;;;;;;;;23.30;31.10;;;;;;5060434;28;19931;-65
2024/03/20 08:00:31;;;;;;;;;;;23.40;31.00;;;;;;5056611;28;19948;-62
2024/03/20 08:02:57;;;;;;;;;;;23.40;30.90;;;;;;5042149;28;19929;-61
2024/03/20 08:05:24;;;;;;;;;;;23.40;30.90;;;;;;5055057;28;19925;-64
2024/03/20 08:07:50;;;;;;;;;;;23.50;30.80;;;;;;5057436;28;20365;-62
2024/03/20 08:10:16;;;;;;;;;;;23.50;30.90;;;;;;5053804;28;19925;-65
2024/03/20 08:12:42;;;;;;;;;;;23.60;30.90;;;;;;5054730;28;19942;-64
2024/03/20 08:15:08;;;;;;;;;;;23.60;30.90;;;;;;5051463;28;19933;-62
2024/03/20 08:17:36;;;;;;;;;;;23.60;30.90;;;;;;5057323;28;19924;-62
2024/03/20 08:20:02;;;;;;;;;;;23.60;30.70;;;;;;5053336;28;19929;-61
2024/03/20 08:22:29;;;;;;;;;;;23.70;30.80;;;;;;5056385;28;19925;-61
2024/03/20 08:24:56;;;;;;;;;;;23.70;30.80;;;;;;5055677;28;19939;-61
2024/03/20 08:27:26;;;;;;;;;;;23.70;30.80;;;;;;5055413;28;19948;-63
2024/03/20 08:29:54;;;;;;;;;;;23.70;30.70;;;;;;5050197;28;19954;-63
2024/03/20 08:32:21;;;;;;;;;;;23.80;30.70;;;;;;5055263;28;19986;-63
2024/03/20 08:34:47;;;;;;;;;;;23.80;30.50;;;;;;5052084;28;19933;-63
2024/03/20 08:37:13;;;;;;;;;;;23.80;30.30;;;;;;5054479;28;19935;-63
2024/03/20 08:39:39;;;;;;;;;;;23.80;30.10;;;;;;5049864;28;19932;-63
2024/03/20 08:42:06;;;;;;;;;;;23.90;30.00;;;;;;5054990;28;19924;-65
2024/03/20 08:44:32;;;;;;;;;;;23.90;29.90;;;;;;5055145;28;19943;-65
2024/03/20 08:46:58;;;;;;;;;;;23.90;29.70;;;;;;5056428;28;20293;-67
2024/03/20 08:49:24;;;;;;;;;;;23.90;29.60;;;;;;5052908;28;20478;-67
2024/03/20 08:51:51;;;;;;;;;;;23.90;29.50;;;;;;5053504;28;19925;-64
2024/03/20 08:54:18;;;;;;;;;;;23.90;29.60;;;;;;5057605;28;19986;-70
2024/03/20 08:56:44;;;;;;;;;;;24.00;29.50;;;;;;5074313;28;20388;-65
2024/03/20 08:59:10;;;;;;;;;;;24.00;30.00;;;;;;5053120;28;19929;-64
2024/03/20 09:01:35;;;;;;;;;;;24.10;29.60;;;;;;5038361;28;19929;-64
2024/03/20 09:04:02;;;;;;;;;;;24.10;29.70;;;;;;5037331;28;19936;-63
2024/03/20 09:06:29;;;;;;;;;;;24.10;29.70;;;;;;5052377;28;19932;-65
2024/03/20 09:08:55;;;;;;;;;;;24.10;29.60;;;;;;5054210;28;19948;-63
2024/03/20 09:11:21;;;;;;;;;;;24.10;29.50;;;;;;5059156;28;20017;-65
2024/03/20 09:13:46;;;;;;;;;;;24.10;29.30;;;;;;5045339;28;19929;-64
2024/03/20 09:16:12;;;;;;;;;;;24.10;29.30;;;;;;5065357;28;19978;-62
2024/03/20 09:18:38;;;;;;;;;;;24.10;29.40;;;;;;5062743;28;20297;-62
2024/03/20 09:21:04;;;;;;;;;;;24.20;29.40;;;;;;5061253;28;20245;-62
2024/03/20 09:23:31;;;;;;;;;;;24.20;29.30;;;;;;5064281;28;20288;-63
2024/03/20 09:25:57;;;;;;;;;;;24.20;29.30;;;;;;5061960;28;19935;-62
2024/03/20 09:28:23;;;;;;;;;;;24.20;29.40;;;;;;5065479;28;19924;-62
2024/03/20 09:30:49;;;;;;;;;;;24.30;29.50;;;;;;5063612;28;19935;-62
2024/03/20 09:33:15;;;;;;;;;;;24.30;29.50;;;;;;5056381;28;19974;-62
2024/03/20 09:35:41;;;;;;;;;;;24.30;29.40;;;;;;5045200;28;19925;-63
2024/03/20 09:38:07;;;;;;;;;;;24.30;29.30;;;;;;5060972;28;19932;-63
2024/03/20 09:40:33;;;;;;;;;;;24.30;29.30;;;;;;5064795;28;19928;-63
2024/03/20 09:42:59;;;;;;;;;;;24.30;29.30;;;;;;5064724;28;19935;-62
2024/03/20 09:45:25;;;;;;;;;;;24.30;29.20;;;;;;5064363;28;19932;-63
2024/03/20 09:47:52;;;;;;;;;;;24.30;29.10;;;;;;5060000;28;19931;-63
2024/03/20 09:50:18;;;;;;;;;;;24.40;29.50;;;;;;5054928;28;19932;-63
2024/03/20 09:52:44;;;;;;;;;;;24.40;29.10;;;;;;5065886;28;19936;-63
2024/03/20 09:55:17;;;;;;;;;;;24.40;29.00;;;;;;5060584;28;19928;-61
2024/03/20 09:57:44;;;;;;;;;;;24.40;29.00;;;;;;5060747;28;19928;-61
2024/03/20 10:00:14;;;;;;;;;;;24.40;29.00;;;;;;5058647;28;19936;-62
2024/03/20 10:02:44;;;;;;;;;;;24.50;29.00;;;;;;5063550;28;19931;-62
2024/03/20 10:05:12;;;;;;;;;;;24.50;29.00;;;;;;5058152;28;20004;-63
2024/03/20 10:07:39;;;;;;;;;;;24.50;29.00;;;;;;5056729;28;19925;-64
2024/03/20 10:10:06;;;;;;;;;;;24.50;29.00;;;;;;5060654;28;19928;-63
2024/03/20 10:12:32;;;;;;;;;;;24.50;29.00;;;;;;5061169;28;19924;-62
2024/03/20 10:14:58;;;;;;;;;;;24.50;29.00;;;;;;5059189;28;20416;-63
2024/03/20 10:17:24;;;;;;;;;;;24.50;29.50;;;;;;5058465;28;20424;-63
2024/03/20 10:19:50;;;;;;;;;;;24.60;29.10;;;;;;5060022;28;19929;-59
2024/03/20 10:22:16;;;;;;;;;;;24.60;29.10;;;;;;5043509;28;19932;-60
2024/03/20 10:24:42;;;;;;;;;;;24.50;29.00;;;;;;5061435;28;19929;-60
2024/03/20 10:27:09;;;;;;;;;;;24.60;29.10;;;;;;5057069;28;19933;-62
2024/03/20 10:29:38;;;;;;;;;;;24.60;29.00;;;;;;5059338;28;19928;-60
2024/03/20 10:32:05;;;;;;;;;;;24.60;29.00;;;;;;5058540;28;19924;-61
2024/03/20 10:34:33;;;;;;;;;;;24.70;29.10;;;;;;5059354;28;19943;-61
2024/03/20 10:36:59;;;;;;;;;;;24.70;29.10;;;;;;5059436;28;19924;-62
2024/03/20 10:39:27;;;;;;;;;;;24.70;29.10;;;;;;5058280;28;19961;-63
2024/03/20 10:41:54;;;;;;;;;;;24.70;29.10;;;;;;5058296;28;20313;-62
2024/03/20 10:44:21;;;;;;;;;;;24.70;29.10;;;;;;5056026;28;20405;-61
2024/03/20 10:46:50;;;;;;;;;;;24.80;29.10;;;;;;5059497;28;19924;-62
2024/03/20 10:49:18;;;;;;;;;;;24.80;29.10;;;;;;5055915;28;20347;-62
2024/03/20 10:51:45;;;;;;;;;;;24.80;29.00;;;;;;5067827;28;19987;-62
2024/03/20 10:54:11;;;;;;;;;;;24.80;28.90;;;;;;5057502;28;20004;-62
2024/03/20 10:56:44;;;;;;;;;;;24.80;28.90;;;;;;5042720;28;19929;-62
2024/03/20 10:59:20;;;;;;;;;;;24.80;28.80;;;;;;5064207;28;19924;-62
2024/03/20 11:02:03;;;;;;;;;;;24.90;28.80;;;;;;5065577;28;19936;-71
2024/03/20 11:04:41;;;;;;;;;;;24.90;28.80;;;;;;5063520;28;19932;-61
2024/03/20 11:07:30;;;;;;;;;;;24.90;28.90;;;;;;5067036;28;20289;-61
2024/03/20 11:09:56;;;;;;;;;;;24.90;28.80;;;;;;5059762;28;19924;-61
2024/03/20 11:12:36;;;;;;;;;;;24.90;28.70;;;;;;5068214;28;19947;-61
2024/03/20 11:15:05;;;;;;;;;;;24.90;28.60;;;;;;5049529;28;19932;-61
2024/03/20 11:17:38;;;;;;;;;;;24.90;28.60;;;;;;5062018;28;19994;-60
2024/03/20 11:20:04;;;;;;;;;;;24.90;28.50;;;;;;5062897;28;20296;-60
2024/03/20 11:22:31;;;;;;;;;;;24.90;28.40;;;;;;5044322;28;19929;-60
2024/03/20 11:24:57;;;;;;;;;;;24.90;28.40;;;;;;5069766;28;19982;-60
2024/03/20 11:27:24;;;;;;;;;;;24.90;28.30;;;;;;5062670;28;20369;-62
2024/03/20 11:29:50;;;;;;;;;;;24.90;28.30;;;;;;5059175;28;19943;-62
2024/03/20 11:32:22;;;;;;;;;;;24.90;28.20;;;;;;5040782;28;20395;-62
2024/03/20 11:34:48;;;;;;;;;;;24.90;28.10;;;;;;5047737;28;19925;-62
2024/03/20 11:37:15;;;;;;;;;;;24.90;28.10;;;;;;5064719;28;19932;-62
2024/03/20 11:39:41;;;;;;;;;;;25.00;28.10;;;;;;5067189;28;19932;-61
2024/03/20 11:42:07;;;;;;;;;;;25.00;28.50;;;;;;5056606;28;19924;-61
2024/03/20 11:44:33;;;;;;;;;;;25.00;28.00;;;;;;5062585;28;19963;-62
2024/03/20 11:46:59;;;;;;;;;;;24.90;28.00;;;;;;5062582;28;19971;-62
2024/03/20 11:49:25;;;;;;;;;;;24.90;28.00;;;;;;5060736;28;19925;-62
2024/03/20 11:51:51;;;;;;;;;;;24.90;28.00;;;;;;5060007;28;19933;-62
2024/03/20 11:54:19;;;;;;;;;;;24.90;28.40;;;;;;5060029;28;19932;-63
2024/03/20 11:56:46;;;;;;;;;;;24.90;27.90;;;;;;5061303;28;19925;-61
2024/03/20 11:59:12;;;;;;;;;;;24.90;27.80;;;;;;5058124;28;20186;-63
2024/03/20 12:01:38;;;;;;;;;;;24.90;27.80;;;;;;5059253;28;20293;-64
2024/03/20 12:04:05;;;;;;;;;;;24.90;27.70;;;;;;5061548;28;19925;-62
2024/03/20 12:06:35;;;;;;;;;;;24.90;27.70;;;;;;5060188;28;19931;-63
2024/03/20 12:09:12;;;;;;;;;;;24.90;27.70;;;;;;5045144;28;19932;-63
2024/03/20 12:11:39;;;;;;;;;;;24.90;27.70;;;;;;5061426;28;19925;-66
2024/03/20 12:14:05;;;;;;;;;;;24.90;27.60;;;;;;5059259;28;19925;-64
2024/03/20 12:16:31;;;;;;;;;;;24.90;27.60;;;;;;5061542;28;19974;-61
2024/03/20 12:18:58;;;;;;;;;;;24.90;27.60;;;;;;5059219;28;19932;-59
2024/03/20 12:21:23;;;;;;;;;;;24.90;27.60;;;;;;5063159;28;19947;-62
2024/03/20 12:23:50;;;;;;;;;;;24.90;27.70;;;;;;5058066;28;20361;-60
2024/03/20 12:26:17;;;;;;;;;;;24.90;28.20;;;;;;5060761;28;19925;-61
2024/03/20 12:28:46;;;;;;;;;;;24.90;27.70;;;;;;5062410;28;19928;-61
2024/03/20 12:31:13;;;;;;;;;;;24.90;27.80;;;;;;5061577;28;20015;-61
2024/03/20 12:33:41;;;;;;;;;;;24.90;27.80;;;;;;5059027;28;19949;-61
2024/03/20 12:36:07;;;;;;;;;;;24.90;27.90;;;;;;5063480;28;19931;-60
2024/03/20 12:38:33;;;;;;;;;;;24.90;28.20;;;;;;5060241;28;19933;-61
2024/03/20 12:40:59;;;;;;;;;;;24.90;28.40;;;;;;5059719;28;20357;-60
2024/03/20 12:43:25;;;;;;;;;;;25.00;28.40;;;;;;5063888;28;19929;-62
2024/03/20 12:45:51;;;;;;;;;;;25.00;28.70;;;;;;5070479;28;20373;-62
2024/03/20 12:48:18;;;;;;;;;;;25.10;28.70;;;;;;5066279;28;20273;-64
2024/03/20 12:50:44;;;;;;;;;;;25.00;28.60;;;;;;5063616;28;19925;-62
2024/03/20 12:53:17;;;;;;;;;;;25.10;28.40;;;;;;5062720;28;19931;-61
2024/03/20 12:55:43;;;;;;;;;;;25.10;28.30;;;;;;5064414;28;19982;-61
2024/03/20 12:58:13;;;;;;;;;;;25.10;28.20;;;;;;5061647;28;20106;-63
2024/03/20 13:00:39;;;;;;;;;;;25.10;28.50;;;;;;5050914;28;19924;-63
2024/03/20 13:03:05;;;;;;;;;;;25.20;28.40;;;;;;5051716;28;19980;-65
2024/03/20 13:05:32;;;;;;;;;;;25.20;28.40;;;;;;5061897;28;19981;-68
2024/03/20 13:07:58;;;;;;;;;;;25.20;28.30;;;;;;5065083;28;19989;-62
2024/03/20 13:10:25;;;;;;;;;;;25.20;28.30;;;;;;5061307;28;20274;-62
2024/03/20 13:12:53;;;;;;;;;;;25.20;28.20;;;;;;5062928;28;19928;-66
2024/03/20 13:15:23;;;;;;;;;;;25.20;28.20;;;;;;5061312;28;19932;-63
2024/03/20 13:17:50;;;;;;;;;;;25.20;28.30;;;;;;5066088;28;19971;-61
2024/03/20 13:20:16;;;;;;;;;;;25.20;28.30;;;;;;5071644;28;19924;-65
2024/03/20 13:22:42;;;;;;;;;;;25.20;28.80;;;;;;5043612;28;19931;-62
2024/03/20 13:25:12;;;;;;;;;;;25.20;28.40;;;;;;5044714;28;19928;-61
2024/03/20 13:27:38;;;;;;;;;;;25.30;28.60;;;;;;5063274;28;19928;-61
2024/03/20 13:30:04;;;;;;;;;;;25.30;28.60;;;;;;5060356;28;19924;-61
2024/03/20 13:32:33;;;;;;;;;;;25.30;28.60;;;;;;5061325;28;19932;-60
2024/03/20 13:35:11;;;;;;;;;;;25.30;28.50;;;;;;5064546;28;19964;-61
2024/03/20 13:37:40;;;;;;;;;;;25.40;28.50;;;;;;5068670;28;19924;-63
2024/03/20 13:40:28;;;;;;;;;;;25.40;28.60;;;;;;5043816;28;19925;-61
2024/03/20 13:43:10;;;;;;;;;;;25.40;28.50;;;;;;5060127;28;19925;-61
2024/03/20 13:45:50;;;;;;;;;;;25.40;28.40;;;;;;5062363;28;19965;-62
2024/03/20 13:48:16;;;;;;;;;;;25.40;28.30;;;;;;5059185;28;19935;-59
2024/03/20 13:50:42;;;;;;;;;;;25.40;28.20;;;;;;5062828;28;19935;-61
2024/03/20 13:53:08;;;;;;;;;;;25.40;28.20;;;;;;5059795;28;19924;-60
2024/03/20 13:55:34;;;;;;;;;;;25.40;28.30;;;;;;5057555;28;19932;-61
2024/03/20 13:58:00;;;;;;;;;;;25.40;28.20;;;;;;5057018;28;19986;-66
2024/03/20 14:00:27;;;;;;;;;;;25.40;28.20;;;;;;5063320;28;20297;-66
2024/03/20 14:02:53;;;;;;;;;;;25.50;28.20;;;;;;5065717;28;20347;-64
2024/03/20 14:05:19;;;;;;;;;;;25.50;28.20;;;;;;5060516;28;20341;-64
2024/03/20 14:07:45;;;;;;;;;;;25.50;28.20;;;;;;5061134;28;19967;-64
2024/03/20 14:10:14;;;;;;;;;;;25.50;28.10;;;;;;5058147;28;19924;-62
2024/03/20 14:12:40;;;;;;;;;;;25.50;28.10;;;;;;5060722;28;19978;-61
2024/03/20 14:15:09;;;;;;;;;;;25.50;28.10;;;;;;5059024;28;19929;-61